Time;durP1;ratioP1;P1;durP2;ratioP2;P2;SDS_P1;SDS_P2;PMS_P1;PMS_P2;Temp;Humidity;BMP_temperature;BMP_pressure;BME280_temperature;BME280_humidity;BME280_pressure;Samples;Min_cycle;Max_cycle;Signal;HPM_P1;HPM_P2
2022/08/04 00:02:08;;;;;;;9.00;3.55;;;;;22.10;100765.00;;;;10477277;28;20626;-79
2022/08/04 00:07:25;;;;;;;7.40;2.88;;;;;22.10;100755.00;;;;10446277;28;20197;-79
2022/08/04 00:12:51;;;;;;;7.75;3.47;;;;;22.00;100755.00;;;;10466728;28;20707;-79
2022/08/04 00:17:53;;;;;;;11.27;3.42;;;;;22.00;100752.00;;;;10402935;28;20608;-79
2022/08/04 00:22:57;;;;;;;5.13;2.72;;;;;21.90;100759.00;;;;10434441;28;20205;-79
2022/08/04 00:28:02;;;;;;;6.97;2.85;;;;;21.90;100747.00;;;;10405417;28;20194;-78
2022/08/04 00:33:04;;;;;;;4.10;3.25;;;;;22.00;100750.00;;;;10425432;28;20221;-79
2022/08/04 00:38:07;;;;;;;5.50;3.60;;;;;21.90;100744.00;;;;10416768;28;20229;-80
2022/08/04 00:43:29;;;;;;;7.68;3.17;;;;;21.80;100742.00;;;;10444476;28;20189;-80
2022/08/04 00:48:46;;;;;;;5.88;3.47;;;;;21.70;100731.00;;;;10427154;28;20197;-81
2022/08/04 00:53:48;;;;;;;8.75;3.88;;;;;21.60;100732.00;;;;10437007;28;20217;-80
2022/08/04 00:58:56;;;;;;;4.18;3.10;;;;;21.60;100737.00;;;;10446078;28;20194;-81
2022/08/04 01:04:09;;;;;;;6.85;3.42;;;;;21.50;100735.00;;;;10442765;28;20213;-80
2022/08/04 01:09:32;;;;;;;4.78;3.15;;;;;21.50;100726.00;;;;10443340;28;20194;-80
2022/08/04 01:14:50;;;;;;;8.65;3.47;;;;;21.40;100729.00;;;;10445500;28;20656;-80
2022/08/04 01:20:08;;;;;;;6.88;3.35;;;;;21.30;100724.00;;;;10461298;28;20197;-80
2022/08/04 01:25:51;;;;;;;7.32;3.53;;;;;21.40;100728.00;;;;10452943;28;20652;-80
2022/08/04 01:31:05;;;;;;;5.72;3.38;;;;;21.40;100729.00;;;;10435498;28;20205;-80
2022/08/04 01:36:09;;;;;;;10.73;3.50;;;;;21.20;100730.00;;;;10420915;28;20225;-80
2022/08/04 01:41:18;;;;;;;10.45;4.50;;;;;21.10;100731.00;;;;10425214;28;20201;-80
2022/08/04 01:46:34;;;;;;;13.18;5.10;;;;;21.10;100738.00;;;;10429941;28;20676;-80
2022/08/04 01:51:38;;;;;;;7.57;4.88;;;;;21.10;100729.00;;;;10437240;28;20209;-80
2022/08/04 01:56:42;;;;;;;12.48;5.15;;;;;21.20;100730.00;;;;10417305;28;20197;-80
2022/08/04 02:01:44;;;;;;;11.18;4.57;;;;;21.10;100723.00;;;;10427989;28;20228;-80
2022/08/04 02:06:56;;;;;;;6.88;5.18;;;;;21.00;100738.00;;;;10403878;28;20202;-80
2022/08/04 02:12:39;;;;;;;9.43;4.85;;;;;20.90;100725.00;;;;10421953;28;20745;-80
2022/08/04 02:17:49;;;;;;;10.27;5.15;;;;;20.90;100715.00;;;;10374861;28;20221;-80
2022/08/04 02:23:00;;;;;;;11.07;4.60;;;;;20.80;100717.00;;;;10388886;28;20288;-80
2022/08/04 02:28:32;;;;;;;12.63;5.00;;;;;20.80;100713.00;;;;10419486;28;20236;-80
2022/08/04 02:33:42;;;;;;;7.95;4.70;;;;;20.70;100716.00;;;;10428451;28;20221;-80
2022/08/04 02:38:57;;;;;;;7.80;5.13;;;;;20.70;100724.00;;;;10444548;28;20214;-80
2022/08/04 02:44:01;;;;;;;7.80;4.78;;;;;20.60;100727.00;;;;10443249;28;20244;-80
2022/08/04 02:49:06;;;;;;;10.48;4.82;;;;;20.70;100725.00;;;;10458701;28;20263;-80
2022/08/04 02:54:08;;;;;;;18.33;4.88;;;;;20.60;100720.00;;;;10442689;28;20221;-80
2022/08/04 02:59:12;;;;;;;9.30;4.75;;;;;20.50;100721.00;;;;10442469;28;20207;-80
2022/08/04 03:04:46;;;;;;;10.68;5.18;;;;;20.30;100708.00;;;;10443439;28;20214;-80
2022/08/04 03:10:00;;;;;;;9.82;5.35;;;;;20.20;100711.00;;;;10463273;28;20209;-80
2022/08/04 03:15:39;;;;;;;14.77;5.20;;;;;20.10;100705.00;;;;10434109;28;20198;-80
2022/08/04 03:20:59;;;;;;;10.00;5.32;;;;;20.10;100710.00;;;;10450311;28;20549;-79
2022/08/04 03:26:20;;;;;;;11.50;6.35;;;;;20.20;100705.00;;;;10433987;28;20198;-80
2022/08/04 03:31:57;;;;;;;9.88;4.97;;;;;20.20;100708.00;;;;10465988;28;20755;-80
2022/08/04 03:37:30;;;;;;;11.95;6.75;;;;;20.20;100710.00;;;;10432513;28;20213;-80
2022/08/04 03:42:35;;;;;;;12.32;6.28;;;;;20.20;100707.00;;;;10428514;28;20627;-80
2022/08/04 03:47:52;;;;;;;10.05;5.75;;;;;20.20;100709.00;;;;10480351;28;20209;-80
2022/08/04 03:53:14;;;;;;;14.50;6.60;;;;;20.10;100716.00;;;;10466646;28;20205;-80
2022/08/04 03:58:43;;;;;;;10.80;6.78;;;;;20.20;100715.00;;;;10465198;28;20545;-80
2022/08/04 04:04:02;;;;;;;12.38;6.30;;;;;20.20;100711.00;;;;10464490;28;20225;-80
2022/08/04 04:09:30;;;;;;;15.80;7.30;;;;;20.20;100716.00;;;;10444024;28;20198;-80
2022/08/04 04:15:19;;;;;;;11.65;6.15;;;;;20.20;100719.00;;;;10415320;28;20280;-80
2022/08/04 04:20:43;;;;;;;13.07;5.35;;;;;20.20;100712.00;;;;10446513;28;20201;-80
2022/08/04 04:25:59;;;;;;;12.15;6.70;;;;;20.20;100727.00;;;;10480646;28;20204;-80
2022/08/04 04:31:10;;;;;;;12.27;6.22;;;;;20.20;100707.00;;;;10444897;28;20200;-80
2022/08/04 04:36:28;;;;;;;11.02;5.88;;;;;20.20;100708.00;;;;10454382;28;20204;-80
2022/08/04 04:41:44;;;;;;;10.18;5.60;;;;;20.30;100714.00;;;;10464522;28;20695;-80
2022/08/04 04:46:56;;;;;;;11.68;4.70;;;;;20.50;100711.00;;;;10474969;28;20185;-80
2022/08/04 04:52:25;;;;;;;8.93;4.78;;;;;20.60;100709.00;;;;10423207;28;20236;-80
2022/08/04 04:57:33;;;;;;;10.15;5.25;;;;;20.80;100716.00;;;;10450615;28;20192;-80
2022/08/04 05:02:58;;;;;;;10.43;5.30;;;;;20.90;100728.00;;;;10436903;28;20271;-80
2022/08/04 05:08:27;;;;;;;7.25;4.35;;;;;21.00;100734.00;;;;10430527;28;20204;-80
2022/08/04 05:13:48;;;;;;;7.75;4.18;;;;;21.10;100733.00;;;;10436182;28;20271;-79
2022/08/04 05:19:33;;;;;;;11.00;3.78;;;;;21.20;100750.00;;;;10467770;28;20194;-79
2022/08/04 05:24:41;;;;;;;7.15;4.10;;;;;21.20;100736.00;;;;10420225;28;20289;-80
2022/08/04 05:30:03;;;;;;;10.07;3.92;;;;;21.40;100747.00;;;;10422684;28;20185;-80
2022/08/04 05:35:30;;;;;;;10.63;4.03;;;;;21.70;100749.00;;;;10445040;28;20237;-79
2022/08/04 05:40:53;;;;;;;12.63;3.88;;;;;22.00;100743.00;;;;10461688;28;20201;-80
2022/08/04 05:45:57;;;;;;;11.23;3.30;;;;;22.50;100749.00;;;;10432264;28;20189;-80
2022/08/04 05:51:02;;;;;;;11.40;4.25;;;;;22.70;100750.00;;;;10428822;28;20186;-80
2022/08/04 05:56:05;;;;;;;9.55;3.83;;;;;22.60;100751.00;;;;10443590;28;20686;-80
2022/08/04 06:01:09;;;;;;;12.13;3.97;;;;;22.90;100744.00;;;;10435409;28;20662;-80
2022/08/04 06:06:13;;;;;;;5.45;3.10;;;;;23.60;100751.00;;;;10426644;28;20623;-80
2022/08/04 06:11:18;;;;;;;7.50;2.83;;;;;24.30;100747.00;;;;10459761;28;20564;-80
2022/08/04 06:16:23;;;;;;;9.55;3.40;;;;;24.50;100755.00;;;;10443983;28;20209;-80
2022/08/04 06:21:33;;;;;;;8.02;3.58;;;;;24.00;100768.00;;;;10445497;28;20565;-80
2022/08/04 06:26:36;;;;;;;10.85;3.63;;;;;24.20;100763.00;;;;10426322;28;20660;-80
2022/08/04 06:31:56;;;;;;;9.30;3.00;;;;;24.60;100759.00;;;;10424772;28;20212;-80
2022/08/04 06:37:21;;;;;;;6.97;2.35;;;;;24.80;100761.00;;;;10411299;28;20561;-80
2022/08/04 06:42:45;;;;;;;8.65;2.90;;;;;25.30;100762.00;;;;10448803;28;20759;-80
2022/08/04 06:47:47;;;;;;;8.05;2.72;;;;;25.40;100773.00;;;;10443314;28;20190;-80
2022/08/04 06:52:50;;;;;;;8.23;3.50;;;;;24.60;100768.00;;;;10441498;28;20194;-80
2022/08/04 06:57:54;;;;;;;11.18;3.15;;;;;24.90;100775.00;;;;10425518;28;20196;-81
2022/08/04 07:03:04;;;;;;;15.52;2.60;;;;;25.20;100774.00;;;;10439703;28;20218;-80
2022/08/04 07:08:09;;;;;;;12.40;3.50;;;;;26.10;100760.00;;;;10432285;28;20190;-80
2022/08/04 07:13:12;;;;;;;4.47;2.47;;;;;27.00;100772.00;;;;10452612;28;20195;-80
2022/08/04 07:18:14;;;;;;;6.63;2.80;;;;;27.40;100788.00;;;;10436194;28;20204;-80
2022/08/04 07:23:22;;;;;;;7.65;2.85;;;;;26.80;100791.00;;;;10468227;28;20207;-80
2022/08/04 07:28:27;;;;;;;9.35;2.83;;;;;26.80;100798.00;;;;10444208;28;20236;-81
2022/08/04 07:33:29;;;;;;;4.18;2.70;;;;;27.30;100795.00;;;;10463247;28;20197;-81
2022/08/04 07:38:32;;;;;;;6.55;3.17;;;;;26.70;100797.00;;;;10441397;28;20236;-81
2022/08/04 07:43:36;;;;;;;8.30;2.80;;;;;26.60;100800.00;;;;10444108;28;20262;-81
2022/08/04 07:48:38;;;;;;;6.47;2.92;;;;;26.70;100809.00;;;;10444096;28;20545;-81
2022/08/04 07:53:41;;;;;;;6.72;3.15;;;;;26.90;100828.00;;;;10439868;28;20901;-80
2022/08/04 07:58:57;;;;;;;8.02;3.83;;;;;26.70;100845.00;;;;10456819;28;20209;-80
2022/08/04 08:04:00;;;;;;;7.63;4.00;;;;;26.80;100837.00;;;;10433231;28;20281;-81
2022/08/04 08:09:08;;;;;;;7.10;3.70;;;;;26.50;100837.00;;;;10451987;28;20194;-81
2022/08/04 08:14:18;;;;;;;6.32;3.30;;;;;26.50;100846.00;;;;10445798;28;20198;-81
2022/08/04 08:19:20;;;;;;;10.45;3.67;;;;;26.10;100857.00;;;;10435871;28;20660;-81
2022/08/04 08:24:22;;;;;;;10.52;4.68;;;;;26.00;100881.00;;;;10460217;28;20224;-81
2022/08/04 08:29:25;;;;;;;12.00;5.07;;;;;25.80;100895.00;;;;10434738;28;20196;-82
2022/08/04 08:34:29;;;;;;;10.18;5.43;;;;;25.60;100906.00;;;;10445213;28;20194;-83
2022/08/04 08:39:38;;;;;;;9.85;6.10;;;;;25.60;100883.00;;;;10425069;28;20252;-82
2022/08/04 08:45:05;;;;;;;11.23;5.90;;;;;25.40;100866.00;;;;10428898;28;20255;-81
2022/08/04 08:50:38;;;;;;;13.63;7.28;;;;;25.40;100889.00;;;;10403848;28;20206;-83
2022/08/04 08:55:43;;;;;;;12.88;7.90;;;;;25.20;100844.00;;;;10430846;28;20225;-82
2022/08/04 09:01:06;;;;;;;15.18;9.23;;;;;24.70;100891.00;;;;10444894;28;20244;-82
2022/08/04 09:06:17;;;;;;;17.92;10.82;;;;;23.90;100901.00;;;;10464406;28;20280;-81
2022/08/04 09:11:24;;;;;;;18.33;11.27;;;;;23.50;100897.00;;;;10458116;28;20546;-81
2022/08/04 09:16:43;;;;;;;24.13;13.43;;;;;23.20;100913.00;;;;10428534;28;20217;-81
2022/08/04 09:21:51;;;;;;;36.55;18.45;;;;;23.00;100930.00;;;;10449578;28;20221;-81
2022/08/04 09:27:02;;;;;;;51.97;22.80;;;;;23.20;100904.00;;;;10449471;28;20198;-83
2022/08/04 09:32:41;;;;;;;41.88;20.92;;;;;23.30;100881.00;;;;10445557;28;20201;-82
2022/08/04 09:38:02;;;;;;;39.65;21.20;;;;;23.30;100877.00;;;;10482614;28;20668;-82
2022/08/04 09:43:27;;;;;;;32.75;17.40;;;;;23.60;100875.00;;;;10432611;28;20744;-82
2022/08/04 09:48:58;;;;;;;35.28;19.35;;;;;23.30;100905.00;;;;10429496;28;20193;-83
2022/08/04 09:54:08;;;;;;;43.70;21.75;;;;;24.40;100926.00;;;;10433615;28;20213;-82
2022/08/04 10:00:09;;;;;;;37.92;21.88;;;;;24.50;100910.00;;;;10440886;28;20198;-82
2022/08/04 10:05:19;;;;;;;47.17;24.75;;;;;23.90;100887.00;;;;10331887;28;20218;-83
2022/08/04 10:10:45;;;;;;;49.20;23.77;;;;;24.40;100882.00;;;;10412107;28;20205;-83
2022/08/04 10:16:29;;;;;;;36.92;22.75;;;;;25.20;100849.00;;;;10423205;28;20197;-82
2022/08/04 10:21:35;;;;;;;34.55;21.92;;;;;27.10;100843.00;;;;10383237;28;20637;-83
2022/08/04 10:27:14;;;;;;;35.22;22.50;;;;;29.00;100860.00;;;;10453784;28;20232;-82
2022/08/04 10:32:22;;;;;;;33.95;21.88;;;;;27.60;100873.00;;;;10459750;28;20195;-82
2022/08/04 10:37:29;;;;;;;30.90;20.63;;;;;26.80;100863.00;;;;10441055;28;20197;-83
2022/08/04 10:43:02;;;;;;;34.15;21.15;;;;;27.00;100887.00;;;;10447335;28;20237;-83
2022/08/04 10:48:19;;;;;;;35.78;22.45;;;;;27.70;100880.00;;;;10412995;28;20577;-83
2022/08/04 10:53:38;;;;;;;31.02;22.85;;;;;28.90;100875.00;;;;10395449;28;20247;-83
2022/08/04 10:58:55;;;;;;;28.45;18.77;;;;;30.60;100894.00;;;;10440793;28;20193;-83
2022/08/04 11:04:04;;;;;;;25.98;18.67;;;;;30.60;100900.00;;;;10412887;28;20213;-83
2022/08/04 11:09:07;;;;;;;21.83;17.20;;;;;30.50;100895.00;;;;10423741;28;20197;-82
2022/08/04 11:14:19;;;;;;;21.00;14.43;;;;;30.50;100887.00;;;;10440794;28;20271;-83
2022/08/04 11:19:51;;;;;;;20.67;15.38;;;;;29.60;100890.00;;;;10428698;28;20233;-82
2022/08/04 11:25:30;;;;;;;14.18;12.20;;;;;30.00;100894.00;;;;10451053;28;20206;-82
2022/08/04 11:30:51;;;;;;;19.80;14.32;;;;;30.10;100909.00;;;;10442238;28;20206;-83
2022/08/04 11:36:06;;;;;;;14.00;10.88;;;;;29.80;100901.00;;;;10482928;28;20182;-82
2022/08/04 11:41:11;;;;;;;15.93;12.07;;;;;29.10;100901.00;;;;10429987;28;20220;-83
2022/08/04 11:46:22;;;;;;;18.15;11.52;;;;;29.80;100912.00;;;;10436002;28;20194;-83
2022/08/04 11:51:27;;;;;;;11.68;9.73;;;;;29.90;100919.00;;;;10414743;28;20193;-82
2022/08/04 11:56:30;;;;;;;14.30;9.15;;;;;29.60;100914.00;;;;10464890;28;20292;-83
2022/08/04 12:02:19;;;;;;;12.32;7.43;;;;;29.80;100914.00;;;;10452998;28;20221;-81
2022/08/04 12:07:31;;;;;;;12.18;7.70;;;;;31.00;100914.00;;;;10454641;28;20185;-82
2022/08/04 12:12:44;;;;;;;10.90;8.07;;;;;32.20;100929.00;;;;10434880;28;20186;-82
2022/08/04 12:18:23;;;;;;;11.25;6.93;;;;;32.20;100920.00;;;;10436086;28;20210;-82
2022/08/04 12:23:32;;;;;;;8.77;6.55;;;;;32.30;100909.00;;;;10451625;28;20206;-82
2022/08/04 12:28:39;;;;;;;13.13;7.25;;;;;33.60;100914.00;;;;10423109;28;20199;-82
2022/08/04 12:34:20;;;;;;;7.82;6.15;;;;;33.70;100916.00;;;;10432237;28;20181;-82
2022/08/04 12:39:25;;;;;;;7.95;5.47;;;;;33.70;100903.00;;;;10410456;28;20189;-81
2022/08/04 12:44:33;;;;;;;7.93;4.93;;;;;33.80;100904.00;;;;10425723;28;20206;-81
2022/08/04 12:49:43;;;;;;;10.98;5.03;;;;;33.80;100902.00;;;;10417763;28;20200;-82
2022/08/04 12:54:58;;;;;;;11.65;5.72;;;;;34.10;100897.00;;;;10440177;28;20289;-82
2022/08/04 13:00:00;;;;;;;6.60;4.75;;;;;33.80;100896.00;;;;10404160;28;20647;-82
2022/08/04 13:05:06;;;;;;;5.90;3.35;;;;;33.50;100905.00;;;;10427847;28;20217;-82
2022/08/04 13:10:14;;;;;;;6.88;3.95;;;;;33.00;100885.00;;;;10412348;28;20189;-81
2022/08/04 13:15:23;;;;;;;4.60;3.67;;;;;33.40;100883.00;;;;10452352;28;20193;-82
2022/08/04 13:20:30;;;;;;;5.63;4.15;;;;;33.50;100887.00;;;;10455728;28;20185;-82
2022/08/04 13:25:33;;;;;;;6.53;3.05;;;;;33.70;100877.00;;;;10428739;28;20251;-82
2022/08/04 13:30:58;;;;;;;6.90;3.55;;;;;35.20;100879.00;;;;10431041;28;20637;-83
2022/08/04 13:36:02;;;;;;;7.57;4.07;;;;;34.40;100881.00;;;;10413227;28;20225;-82
2022/08/04 13:41:06;;;;;;;9.55;4.40;;;;;34.00;100880.00;;;;10410870;28;20208;-82
2022/08/04 13:46:23;;;;;;;5.45;3.13;;;;;33.90;100877.00;;;;10406937;28;20206;-82
2022/08/04 13:51:30;;;;;;;7.93;3.03;;;;;33.80;100881.00;;;;10424058;28;20220;-83
2022/08/04 13:56:59;;;;;;;7.57;3.15;;;;;33.40;100879.00;;;;10444935;28;20586;-82
2022/08/04 14:02:06;;;;;;;6.00;2.70;;;;;34.00;100877.00;;;;10437078;28;20250;-82
2022/08/04 14:07:18;;;;;;;4.22;3.00;;;;;33.10;100878.00;;;;10439188;28;20198;-82
2022/08/04 14:12:23;;;;;;;7.13;3.40;;;;;33.60;100869.00;;;;10439421;28;20190;-82
2022/08/04 14:17:45;;;;;;;6.65;3.45;;;;;35.30;100855.00;;;;10439817;28;20205;-81
2022/08/04 14:22:47;;;;;;;4.60;2.95;;;;;37.00;100861.00;;;;10461428;28;20206;-82
2022/08/04 14:27:51;;;;;;;8.00;3.28;;;;;35.60;100856.00;;;;10444021;28;20191;-81
2022/08/04 14:33:08;;;;;;;5.53;2.92;;;;;36.50;100845.00;;;;10431768;28;20182;-82
2022/08/04 14:38:45;;;;;;;8.48;3.45;;;;;39.40;100833.00;;;;10405308;28;20198;-82
2022/08/04 14:43:56;;;;;;;7.57;3.47;;;;;39.50;100831.00;;;;10423222;28;20679;-81
2022/08/04 14:49:07;;;;;;;9.02;3.60;;;;;40.00;100820.00;;;;10458493;28;20255;-81
2022/08/04 14:54:14;;;;;;;7.18;4.05;;;;;40.50;100812.00;;;;10484158;28;20186;-82
2022/08/04 14:59:20;;;;;;;5.50;3.38;;;;;41.50;100818.00;;;;10455129;28;20190;-82
2022/08/04 15:04:24;;;;;;;4.82;3.53;;;;;40.30;100823.00;;;;10443836;28;20260;-82
2022/08/04 15:09:26;;;;;;;6.10;3.15;;;;;38.70;100818.00;;;;10417781;28;20192;-82
2022/08/04 15:14:30;;;;;;;9.30;4.15;;;;;38.10;100814.00;;;;10450878;28;20193;-82
2022/08/04 15:19:39;;;;;;;5.22;4.70;;;;;36.50;100802.00;;;;10427706;28;20613;-82
2022/08/04 15:24:56;;;;;;;10.82;4.05;;;;;34.90;100805.00;;;;10449311;28;20215;-81
2022/08/04 15:30:02;;;;;;;5.15;4.35;;;;;38.60;100793.00;;;;10455764;28;20652;-82
2022/08/04 15:35:10;;;;;;;7.85;5.82;;;;;35.60;100797.00;;;;10450868;28;20186;-82
2022/08/04 15:40:18;;;;;;;9.95;5.53;;;;;35.10;100802.00;;;;10450815;28;20177;-82
2022/08/04 15:45:57;;;;;;;6.22;4.47;;;;;37.90;100791.00;;;;10448463;28;20202;-82
2022/08/04 15:51:26;;;;;;;5.20;3.70;;;;;39.10;100792.00;;;;10419414;28;20189;-82
2022/08/04 15:56:33;;;;;;;3.85;2.72;;;;;36.10;100797.00;;;;10431420;28;20194;-82
2022/08/04 16:01:35;;;;;;;6.40;3.35;;;;;33.60;100800.00;;;;10411569;28;20218;-83
2022/08/04 16:06:37;;;;;;;7.07;3.03;;;;;33.00;100797.00;;;;10427910;28;20216;-82
2022/08/04 16:11:39;;;;;;;5.45;2.70;;;;;32.70;100787.00;;;;10425014;28;20588;-82
2022/08/04 16:16:43;;;;;;;6.30;2.50;;;;;31.20;100797.00;;;;10427843;28;20255;-83
2022/08/04 16:21:50;;;;;;;4.50;2.35;;;;;30.80;100790.00;;;;10428509;28;20200;-82
2022/08/04 16:26:59;;;;;;;4.75;2.30;;;;;30.50;100797.00;;;;10444804;28;20186;-82
2022/08/04 16:32:04;;;;;;;4.57;2.38;;;;;30.60;100795.00;;;;10451341;28;20186;-82
2022/08/04 16:37:10;;;;;;;6.30;2.38;;;;;30.70;100802.00;;;;10441691;28;20326;-82
2022/08/04 16:42:27;;;;;;;3.28;2.20;;;;;30.60;100799.00;;;;10438323;28;20667;-82
2022/08/04 16:47:48;;;;;;;4.57;2.40;;;;;30.30;100811.00;;;;10440276;28;20198;-83
2022/08/04 16:52:53;;;;;;;5.50;2.47;;;;;29.90;100807.00;;;;10443869;28;20186;-82
2022/08/04 16:57:59;;;;;;;4.97;2.35;;;;;29.10;100806.00;;;;10428335;28;20217;-83
2022/08/04 17:03:06;;;;;;;4.65;2.47;;;;;29.00;100800.00;;;;10427863;28;20198;-83
2022/08/04 17:08:09;;;;;;;3.28;2.60;;;;;29.00;100802.00;;;;10442143;28;20248;-82
2022/08/04 17:13:36;;;;;;;4.90;2.38;;;;;28.90;100803.00;;;;10428549;28;20231;-83
2022/08/04 17:18:59;;;;;;;4.97;2.67;;;;;28.40;100805.00;;;;10466413;28;20208;-82
2022/08/04 17:24:03;;;;;;;2.17;1.60;;;;;27.80;100807.00;;;;10441268;28;20202;-82
2022/08/04 17:29:18;;;;;;;4.28;1.67;;;;;27.20;100818.00;;;;10444774;28;20235;-83
2022/08/04 17:34:24;;;;;;;2.95;1.65;;;;;26.80;100827.00;;;;10459221;28;20205;-82
2022/08/04 17:39:29;;;;;;;3.45;2.10;;;;;26.50;100834.00;;;;10441987;28;20660;-82
2022/08/04 17:44:39;;;;;;;3.00;1.48;;;;;26.30;100850.00;;;;10428720;28;20580;-82
2022/08/04 17:49:41;;;;;;;5.30;2.00;;;;;26.00;100861.00;;;;10419970;28;20189;-82
2022/08/04 17:54:58;;;;;;;2.83;1.83;;;;;25.80;100870.00;;;;10461283;28;20264;-82
2022/08/04 18:00:05;;;;;;;3.60;2.10;;;;;25.50;100873.00;;;;10452260;28;20279;-82
2022/08/04 18:05:09;;;;;;;5.45;2.22;;;;;25.30;100889.00;;;;10449502;28;20222;-82
2022/08/04 18:10:18;;;;;;;8.82;2.22;;;;;25.10;100896.00;;;;10420738;28;20200;-82
2022/08/04 18:15:35;;;;;;;4.07;1.95;;;;;24.80;100905.00;;;;10456950;28;20284;-82
2022/08/04 18:20:47;;;;;;;6.80;2.08;;;;;24.60;100924.00;;;;10422693;28;20292;-81
2022/08/04 18:25:51;;;;;;;2.90;2.00;;;;;24.40;100932.00;;;;10452276;28;20213;-81
2022/08/04 18:30:53;;;;;;;5.65;2.30;;;;;24.40;100949.00;;;;10432794;28;20209;-82
2022/08/04 18:35:57;;;;;;;3.80;2.40;;;;;24.30;100956.00;;;;10440194;28;20198;-82
2022/08/04 18:41:19;;;;;;;5.28;2.40;;;;;24.10;100992.00;;;;10446254;28;20272;-82
2022/08/04 18:46:22;;;;;;;6.63;2.20;;;;;23.90;100991.00;;;;10420103;28;21748;-81
2022/08/04 18:51:28;;;;;;;3.92;1.95;;;;;23.80;101000.00;;;;10434166;28;20732;-82
2022/08/04 18:56:32;;;;;;;4.00;1.80;;;;;23.50;100998.00;;;;10451807;28;20192;-82
2022/08/04 19:01:37;;;;;;;4.65;2.22;;;;;22.90;100986.00;;;;10421757;28;20214;-82
2022/08/04 19:07:00;;;;;;;2.47;2.03;;;;;22.80;100984.00;;;;10438967;28;20213;-81
2022/08/04 19:12:22;;;;;;;5.72;2.35;;;;;22.80;101000.00;;;;10458537;28;20247;-82
2022/08/04 19:17:28;;;;;;;5.22;2.10;;;;;22.80;101018.00;;;;10453948;28;20201;-82
2022/08/04 19:22:50;;;;;;;3.83;2.25;;;;;21.90;101050.00;;;;10442774;28;20280;-81
2022/08/04 19:28:12;;;;;;;10.73;2.97;;;;;20.80;101060.00;;;;10460402;28;20648;-81
2022/08/04 19:33:18;;;;;;;9.65;2.95;;;;;20.30;101068.00;;;;10451820;28;20203;-81
2022/08/04 19:38:28;;;;;;;9.18;4.00;;;;;20.00;101085.00;;;;10446408;28;20197;-81
2022/08/04 19:43:31;;;;;;;6.95;3.90;;;;;19.80;101095.00;;;;10480833;28;20209;-80
2022/08/04 19:48:34;;;;;;;11.35;4.25;;;;;19.70;101105.00;;;;10440926;28;20200;-81
2022/08/04 19:53:37;;;;;;;7.82;3.67;;;;;19.60;101095.00;;;;10439938;28;20194;-81
2022/08/04 19:58:44;;;;;;;7.80;3.55;;;;;19.40;101075.00;;;;10465164;28;20193;-82
2022/08/04 20:03:49;;;;;;;10.05;9.23;;;;;19.30;101049.00;;;;10440506;28;20214;-81
2022/08/04 20:09:10;;;;;;;7.75;4.35;;;;;19.40;101053.00;;;;10447614;28;20350;-81
2022/08/04 20:14:27;;;;;;;6.63;4.65;;;;;19.50;101020.00;;;;10429703;28;20967;-81
2022/08/04 20:19:33;;;;;;;7.40;4.53;;;;;19.50;101024.00;;;;10447872;28;20194;-81
2022/08/04 20:24:35;;;;;;;7.05;4.10;;;;;19.30;101042.00;;;;10461947;28;20205;-80
2022/08/04 20:29:51;;;;;;;7.20;4.70;;;;;19.00;101036.00;;;;10473587;28;20255;-80
2022/08/04 20:34:57;;;;;;;9.15;4.78;;;;;19.00;101008.00;;;;10429743;28;20200;-80
2022/08/04 20:40:00;;;;;;;8.30;4.75;;;;;19.00;101028.00;;;;10426018;28;20220;-80
2022/08/04 20:45:03;;;;;;;7.38;5.18;;;;;18.90;101041.00;;;;10441287;28;20209;-80
2022/08/04 20:50:06;;;;;;;7.55;5.03;;;;;18.90;101062.00;;;;10476543;28;20217;-80
2022/08/04 20:55:10;;;;;;;9.50;5.35;;;;;18.90;101076.00;;;;10477902;28;20224;-80
2022/08/04 21:00:12;;;;;;;6.97;5.57;;;;;18.90;101075.00;;;;10424813;28;20580;-80
2022/08/04 21:05:14;;;;;;;8.77;5.60;;;;;18.80;101074.00;;;;10441995;28;20213;-80
2022/08/04 21:10:16;;;;;;;8.05;5.85;;;;;18.80;101070.00;;;;10434442;28;20194;-80
2022/08/04 21:15:24;;;;;;;9.10;5.90;;;;;18.90;101063.00;;;;10440005;28;20209;-80
2022/08/04 21:20:47;;;;;;;11.73;6.50;;;;;18.90;101076.00;;;;10427481;28;20189;-80
2022/08/04 21:25:59;;;;;;;6.95;5.97;;;;;19.00;101056.00;;;;10425579;28;20204;-80
2022/08/04 21:31:03;;;;;;;8.60;7.03;;;;;19.00;101036.00;;;;10468210;28;20287;-80
2022/08/04 21:36:22;;;;;;;9.68;6.60;;;;;19.00;101001.00;;;;10434082;28;20192;-80
2022/08/04 21:41:28;;;;;;;10.65;7.78;;;;;19.00;100984.00;;;;10421956;28;20204;-80
2022/08/04 21:46:30;;;;;;;12.02;7.50;;;;;19.00;100956.00;;;;10454992;28;20198;-80
2022/08/04 21:51:35;;;;;;;10.02;6.80;;;;;19.00;100999.00;;;;10425333;28;20673;-79
2022/08/04 21:56:57;;;;;;;10.02;6.45;;;;;18.90;101029.00;;;;10431326;28;20738;-79
2022/08/04 22:02:04;;;;;;;12.38;7.57;;;;;18.90;101031.00;;;;10423341;28;20225;-79
2022/08/04 22:07:08;;;;;;;11.60;8.07;;;;;18.80;101032.00;;;;10406033;28;20209;-79
2022/08/04 22:12:10;;;;;;;10.85;7.65;;;;;18.90;101031.00;;;;10431458;28;20564;-79
2022/08/04 22:17:13;;;;;;;13.88;8.98;;;;;19.00;101027.00;;;;10455386;28;20229;-79
2022/08/04 22:22:19;;;;;;;12.02;8.20;;;;;19.00;101027.00;;;;10457568;28;20201;-79
2022/08/04 22:32:56;;;;;;;10.77;8.73;;;;;19.20;101030.00;;;;10453841;28;20209;-79
2022/08/04 22:38:00;;;;;;;14.00;9.00;;;;;19.20;101017.00;;;;10452802;28;20201;-79
2022/08/04 22:43:10;;;;;;;10.95;7.95;;;;;19.20;101024.00;;;;10453634;28;20206;-79
2022/08/04 22:48:37;;;;;;;14.32;9.07;;;;;19.20;101031.00;;;;10446290;28;20208;-79
2022/08/04 22:53:39;;;;;;;16.10;8.40;;;;;19.20;101020.00;;;;10454990;28;20198;-79
2022/08/04 22:58:43;;;;;;;11.23;8.27;;;;;19.20;101018.00;;;;10441330;28;20225;-79
2022/08/04 23:03:51;;;;;;;12.98;8.95;;;;;19.20;101014.00;;;;10463652;28;20212;-79
2022/08/04 23:08:56;;;;;;;10.60;8.80;;;;;19.30;101009.00;;;;10443551;28;20564;-79
2022/08/04 23:14:00;;;;;;;10.30;8.45;;;;;19.30;101002.00;;;;10397392;28;20550;-79
2022/08/04 23:19:02;;;;;;;16.45;8.38;;;;;19.20;101003.00;;;;10429777;28;20245;-79
2022/08/04 23:24:10;;;;;;;12.40;9.15;;;;;19.20;101002.00;;;;10456499;28;20206;-79
2022/08/04 23:29:14;;;;;;;11.23;8.32;;;;;19.10;100999.00;;;;10465883;28;20194;-79
2022/08/04 23:34:16;;;;;;;11.85;7.55;;;;;19.00;100996.00;;;;10430866;28;20644;-79
2022/08/04 23:39:19;;;;;;;9.60;7.22;;;;;19.00;100994.00;;;;10440001;28;20194;-79
2022/08/04 23:44:23;;;;;;;11.88;7.55;;;;;19.00;100982.00;;;;10476716;28;20279;-79
2022/08/04 23:49:30;;;;;;;13.70;7.22;;;;;19.00;100985.00;;;;10437283;28;20620;-79
2022/08/04 23:54:46;;;;;;;13.45;7.75;;;;;19.00;100988.00;;;;10462931;28;20276;-79
2022/08/04 23:59:52;;;;;;;11.27;6.78;;;;;19.00;100984.00;;;;10448731;28;20194;-79
